sensor_id;sensor_type;location;lat;lon;timestamp;P1;durP1;ratioP1;P2;durP2;ratioP2
17528;SDS011;8882;53.192;8.184;2024-03-29T05:15:28;1.20;;;0.87;;
17528;SDS011;8882;53.192;8.184;2024-03-29T05:17:54;3.47;;;1.10;;
17528;SDS011;8882;53.192;8.184;2024-03-29T05:20:19;3.63;;;0.70;;
17528;SDS011;8882;53.192;8.184;2024-03-29T05:22:45;5.77;;;1.17;;
17528;SDS011;8882;53.192;8.184;2024-03-29T05:25:10;1.33;;;0.70;;
17528;SDS011;8882;53.192;8.184;2024-03-29T05:27:36;1.30;;;0.87;;
17528;SDS011;8882;53.192;8.184;2024-03-29T05:30:02;2.93;;;0.87;;
17528;SDS011;8882;53.192;8.184;2024-03-29T05:32:28;1.33;;;0.70;;
17528;SDS011;8882;53.192;8.184;2024-03-29T05:34:54;1.57;;;0.73;;
17528;SDS011;8882;53.192;8.184;2024-03-29T05:37:20;1.03;;;0.70;;
17528;SDS011;8882;53.192;8.184;2024-03-29T05:39:46;4.00;;;0.80;;
17528;SDS011;8882;53.192;8.184;2024-03-29T05:42:12;3.00;;;1.23;;
17528;SDS011;8882;53.192;8.184;2024-03-29T05:44:38;2.73;;;0.83;;
17528;SDS011;8882;53.192;8.184;2024-03-29T05:47:03;0.97;;;0.90;;
17528;SDS011;8882;53.192;8.184;2024-03-29T05:49:32;0.80;;;0.80;;
17528;SDS011;8882;53.192;8.184;2024-03-29T05:51:58;1.03;;;0.80;;
17528;SDS011;8882;53.192;8.184;2024-03-29T05:54:24;0.97;;;0.70;;
17528;SDS011;8882;53.192;8.184;2024-03-29T05:56:49;3.17;;;0.90;;
17528;SDS011;8882;53.192;8.184;2024-03-29T05:59:15;2.23;;;0.80;;
17528;SDS011;8882;53.192;8.184;2024-03-29T06:01:40;2.63;;;0.97;;
17528;SDS011;8882;53.192;8.184;2024-03-29T06:04:07;2.23;;;0.90;;
17528;SDS011;8882;53.192;8.184;2024-03-29T06:06:40;1.40;;;0.60;;
17528;SDS011;8882;53.192;8.184;2024-03-29T06:09:06;1.10;;;0.70;;
17528;SDS011;8882;53.192;8.184;2024-03-29T06:11:31;2.17;;;0.80;;
17528;SDS011;8882;53.192;8.184;2024-03-29T06:13:57;1.27;;;0.63;;
17528;SDS011;8882;53.192;8.184;2024-03-29T06:16:25;2.27;;;1.03;;
17528;SDS011;8882;53.192;8.184;2024-03-29T06:19:11;4.40;;;1.00;;
17528;SDS011;8882;53.192;8.184;2024-03-29T06:21:36;1.70;;;0.90;;
17528;SDS011;8882;53.192;8.184;2024-03-29T06:24:08;2.10;;;0.73;;
17528;SDS011;8882;53.192;8.184;2024-03-29T06:26:38;3.77;;;0.73;;
17528;SDS011;8882;53.192;8.184;2024-03-29T06:29:04;0.87;;;0.87;;
17528;SDS011;8882;53.192;8.184;2024-03-29T06:31:30;2.63;;;0.90;;
17528;SDS011;8882;53.192;8.184;2024-03-29T06:33:57;2.27;;;0.80;;
17528;SDS011;8882;53.192;8.184;2024-03-29T06:36:23;1.43;;;0.67;;
17528;SDS011;8882;53.192;8.184;2024-03-29T06:38:49;0.90;;;0.70;;
17528;SDS011;8882;53.192;8.184;2024-03-29T06:41:14;2.40;;;0.97;;
17528;SDS011;8882;53.192;8.184;2024-03-29T06:43:43;0.53;;;0.50;;
17528;SDS011;8882;53.192;8.184;2024-03-29T06:46:11;1.90;;;0.70;;
17528;SDS011;8882;53.192;8.184;2024-03-29T06:48:37;0.70;;;0.70;;
17528;SDS011;8882;53.192;8.184;2024-03-29T06:51:03;1.97;;;0.70;;
17528;SDS011;8882;53.192;8.184;2024-03-29T06:53:29;2.07;;;0.90;;
17528;SDS011;8882;53.192;8.184;2024-03-29T06:55:55;3.50;;;0.90;;
17528;SDS011;8882;53.192;8.184;2024-03-29T06:58:21;2.90;;;1.20;;
17528;SDS011;8882;53.192;8.184;2024-03-29T07:00:50;0.83;;;0.83;;
17528;SDS011;8882;53.192;8.184;2024-03-29T07:03:17;1.40;;;0.80;;
17528;SDS011;8882;53.192;8.184;2024-03-29T07:05:43;5.47;;;1.20;;
17528;SDS011;8882;53.192;8.184;2024-03-29T07:08:10;2.30;;;0.80;;
17528;SDS011;8882;53.192;8.184;2024-03-29T07:10:35;0.70;;;0.70;;
17528;SDS011;8882;53.192;8.184;2024-03-29T07:13:01;2.40;;;1.10;;
17528;SDS011;8882;53.192;8.184;2024-03-29T07:15:27;1.03;;;0.87;;
17528;SDS011;8882;53.192;8.184;2024-03-29T07:17:52;3.50;;;1.00;;
17528;SDS011;8882;53.192;8.184;2024-03-29T07:20:18;1.33;;;0.70;;
17528;SDS011;8882;53.192;8.184;2024-03-29T07:22:44;1.43;;;0.90;;
17528;SDS011;8882;53.192;8.184;2024-03-29T07:25:10;1.00;;;0.90;;
17528;SDS011;8882;53.192;8.184;2024-03-29T07:27:36;1.60;;;0.83;;
17528;SDS011;8882;53.192;8.184;2024-03-29T07:30:02;2.77;;;0.90;;
17528;SDS011;8882;53.192;8.184;2024-03-29T07:32:33;1.67;;;1.00;;
17528;SDS011;8882;53.192;8.184;2024-03-29T07:34:58;1.60;;;0.83;;
17528;SDS011;8882;53.192;8.184;2024-03-29T07:37:24;1.33;;;0.80;;
17528;SDS011;8882;53.192;8.184;2024-03-29T07:39:50;1.70;;;1.13;;
17528;SDS011;8882;53.192;8.184;2024-03-29T07:42:16;3.87;;;0.90;;
17528;SDS011;8882;53.192;8.184;2024-03-29T07:44:42;2.20;;;0.97;;
17528;SDS011;8882;53.192;8.184;2024-03-29T07:47:07;1.07;;;0.97;;
17528;SDS011;8882;53.192;8.184;2024-03-29T07:49:33;2.23;;;0.67;;
17528;SDS011;8882;53.192;8.184;2024-03-29T07:51:59;0.97;;;0.70;;
17528;SDS011;8882;53.192;8.184;2024-03-29T07:54:27;2.43;;;0.87;;
17528;SDS011;8882;53.192;8.184;2024-03-29T07:56:52;2.80;;;0.70;;
17528;SDS011;8882;53.192;8.184;2024-03-29T07:59:18;1.43;;;0.70;;
17528;SDS011;8882;53.192;8.184;2024-03-29T08:01:44;2.07;;;1.00;;
17528;SDS011;8882;53.192;8.184;2024-03-29T08:04:10;2.50;;;0.70;;
17528;SDS011;8882;53.192;8.184;2024-03-29T08:06:36;3.07;;;0.90;;
17528;SDS011;8882;53.192;8.184;2024-03-29T08:09:01;0.83;;;0.70;;
17528;SDS011;8882;53.192;8.184;2024-03-29T08:11:27;4.07;;;1.00;;
17528;SDS011;8882;53.192;8.184;2024-03-29T08:13:52;2.43;;;0.80;;
17528;SDS011;8882;53.192;8.184;2024-03-29T08:16:18;0.60;;;0.60;;
17528;SDS011;8882;53.192;8.184;2024-03-29T08:18:45;3.13;;;0.90;;
17528;SDS011;8882;53.192;8.184;2024-03-29T08:21:11;2.33;;;1.27;;
17528;SDS011;8882;53.192;8.184;2024-03-29T08:23:40;3.70;;;1.20;;
17528;SDS011;8882;53.192;8.184;2024-03-29T08:26:06;5.00;;;1.00;;
17528;SDS011;8882;53.192;8.184;2024-03-29T08:28:32;1.20;;;1.00;;
17528;SDS011;8882;53.192;8.184;2024-03-29T08:30:58;1.30;;;0.93;;
17528;SDS011;8882;53.192;8.184;2024-03-29T08:33:28;1.13;;;1.03;;
17528;SDS011;8882;53.192;8.184;2024-03-29T08:35:55;1.60;;;0.97;;
17528;SDS011;8882;53.192;8.184;2024-03-29T08:38:21;0.70;;;0.63;;
17528;SDS011;8882;53.192;8.184;2024-03-29T08:40:47;1.00;;;0.90;;
17528;SDS011;8882;53.192;8.184;2024-03-29T08:43:13;1.10;;;0.80;;
17528;SDS011;8882;53.192;8.184;2024-03-29T08:45:40;1.17;;;0.80;;
17528;SDS011;8882;53.192;8.184;2024-03-29T08:48:06;0.80;;;0.80;;
17528;SDS011;8882;53.192;8.184;2024-03-29T08:50:33;2.87;;;0.80;;
17528;SDS011;8882;53.192;8.184;2024-03-29T08:52:59;2.43;;;1.00;;
17528;SDS011;8882;53.192;8.184;2024-03-29T08:55:24;4.10;;;0.80;;
17528;SDS011;8882;53.192;8.184;2024-03-29T08:57:51;1.93;;;1.00;;
17528;SDS011;8882;53.192;8.184;2024-03-29T09:00:16;1.27;;;0.80;;
17528;SDS011;8882;53.192;8.184;2024-03-29T09:02:42;3.97;;;1.40;;
17528;SDS011;8882;53.192;8.184;2024-03-29T09:05:07;3.00;;;1.17;;
17528;SDS011;8882;53.192;8.184;2024-03-29T09:07:33;1.67;;;1.17;;
17528;SDS011;8882;53.192;8.184;2024-03-29T09:09:59;2.37;;;1.20;;
17528;SDS011;8882;53.192;8.184;2024-03-29T09:12:24;2.67;;;1.10;;
17528;SDS011;8882;53.192;8.184;2024-03-29T09:14:51;2.27;;;0.90;;
17528;SDS011;8882;53.192;8.184;2024-03-29T09:17:17;2.40;;;1.10;;
17528;SDS011;8882;53.192;8.184;2024-03-29T09:19:42;1.33;;;0.77;;
17528;SDS011;8882;53.192;8.184;2024-03-29T09:22:08;2.10;;;0.90;;
17528;SDS011;8882;53.192;8.184;2024-03-29T09:24:33;4.00;;;1.07;;
17528;SDS011;8882;53.192;8.184;2024-03-29T09:26:59;1.90;;;0.90;;
17528;SDS011;8882;53.192;8.184;2024-03-29T09:29:25;1.20;;;0.90;;
17528;SDS011;8882;53.192;8.184;2024-03-29T09:31:50;2.47;;;0.90;;
17528;SDS011;8882;53.192;8.184;2024-03-29T09:34:16;1.00;;;0.90;;
17528;SDS011;8882;53.192;8.184;2024-03-29T09:36:42;2.03;;;1.07;;
17528;SDS011;8882;53.192;8.184;2024-03-29T09:39:07;1.30;;;1.00;;
17528;SDS011;8882;53.192;8.184;2024-03-29T09:41:33;2.40;;;0.80;;
17528;SDS011;8882;53.192;8.184;2024-03-29T09:44:02;3.97;;;1.00;;
17528;SDS011;8882;53.192;8.184;2024-03-29T09:46:28;2.97;;;1.00;;
17528;SDS011;8882;53.192;8.184;2024-03-29T09:48:56;1.37;;;1.00;;
17528;SDS011;8882;53.192;8.184;2024-03-29T09:51:22;1.93;;;0.90;;
17528;SDS011;8882;53.192;8.184;2024-03-29T09:53:49;3.27;;;1.33;;
17528;SDS011;8882;53.192;8.184;2024-03-29T09:56:15;4.07;;;0.93;;
17528;SDS011;8882;53.192;8.184;2024-03-29T09:58:41;2.83;;;0.90;;
17528;SDS011;8882;53.192;8.184;2024-03-29T10:01:07;1.23;;;0.90;;
17528;SDS011;8882;53.192;8.184;2024-03-29T10:03:41;3.03;;;1.00;;
17528;SDS011;8882;53.192;8.184;2024-03-29T10:06:09;2.57;;;1.13;;
17528;SDS011;8882;53.192;8.184;2024-03-29T10:08:37;5.67;;;1.20;;
17528;SDS011;8882;53.192;8.184;2024-03-29T10:11:03;2.90;;;1.40;;
17528;SDS011;8882;53.192;8.184;2024-03-29T10:13:29;2.77;;;1.60;;
17528;SDS011;8882;53.192;8.184;2024-03-29T10:15:54;2.90;;;1.70;;
17528;SDS011;8882;53.192;8.184;2024-03-29T10:18:25;2.60;;;2.20;;
17528;SDS011;8882;53.192;8.184;2024-03-29T10:20:58;3.73;;;2.40;;
17528;SDS011;8882;53.192;8.184;2024-03-29T10:23:28;2.60;;;2.13;;
17528;SDS011;8882;53.192;8.184;2024-03-29T10:25:55;3.60;;;2.30;;
17528;SDS011;8882;53.192;8.184;2024-03-29T10:28:21;2.63;;;1.77;;
17528;SDS011;8882;53.192;8.184;2024-03-29T10:30:48;1.93;;;1.57;;
17528;SDS011;8882;53.192;8.184;2024-03-29T10:33:16;3.33;;;1.77;;
17528;SDS011;8882;53.192;8.184;2024-03-29T10:35:44;2.00;;;1.50;;
17528;SDS011;8882;53.192;8.184;2024-03-29T10:38:11;2.20;;;1.50;;
17528;SDS011;8882;53.192;8.184;2024-03-29T10:40:40;2.37;;;1.40;;
17528;SDS011;8882;53.192;8.184;2024-03-29T10:43:09;2.23;;;1.30;;
17528;SDS011;8882;53.192;8.184;2024-03-29T10:45:39;2.30;;;1.43;;
17528;SDS011;8882;53.192;8.184;2024-03-29T10:48:05;2.77;;;1.10;;
17528;SDS011;8882;53.192;8.184;2024-03-29T10:50:36;2.93;;;1.30;;
17528;SDS011;8882;53.192;8.184;2024-03-29T10:53:04;1.00;;;1.00;;
17528;SDS011;8882;53.192;8.184;2024-03-29T10:55:30;2.13;;;1.20;;
17528;SDS011;8882;53.192;8.184;2024-03-29T10:57:58;3.17;;;1.27;;
17528;SDS011;8882;53.192;8.184;2024-03-29T11:00:27;1.73;;;1.20;;
17528;SDS011;8882;53.192;8.184;2024-03-29T11:05:34;1.40;;;1.27;;
17528;SDS011;8882;53.192;8.184;2024-03-29T11:08:02;1.50;;;1.40;;
17528;SDS011;8882;53.192;8.184;2024-03-29T11:10:29;1.60;;;1.13;;
17528;SDS011;8882;53.192;8.184;2024-03-29T11:13:24;1.23;;;1.13;;
17528;SDS011;8882;53.192;8.184;2024-03-29T11:16:10;3.93;;;1.30;;
17528;SDS011;8882;53.192;8.184;2024-03-29T11:18:36;4.80;;;1.53;;
17528;SDS011;8882;53.192;8.184;2024-03-29T11:21:03;4.33;;;1.40;;
17528;SDS011;8882;53.192;8.184;2024-03-29T11:23:31;2.53;;;1.70;;
17528;SDS011;8882;53.192;8.184;2024-03-29T11:25:57;2.03;;;1.50;;
17528;SDS011;8882;53.192;8.184;2024-03-29T11:28:31;2.13;;;1.07;;
17528;SDS011;8882;53.192;8.184;2024-03-29T11:31:01;1.50;;;1.40;;
17528;SDS011;8882;53.192;8.184;2024-03-29T11:35:56;2.63;;;1.67;;
17528;SDS011;8882;53.192;8.184;2024-03-29T11:38:28;2.73;;;1.47;;
17528;SDS011;8882;53.192;8.184;2024-03-29T11:41:06;2.17;;;1.40;;
17528;SDS011;8882;53.192;8.184;2024-03-29T11:43:33;2.93;;;1.70;;
17528;SDS011;8882;53.192;8.184;2024-03-29T11:46:00;2.93;;;1.60;;
17528;SDS011;8882;53.192;8.184;2024-03-29T11:48:27;2.77;;;1.83;;
17528;SDS011;8882;53.192;8.184;2024-03-29T11:50:53;2.37;;;1.73;;
17528;SDS011;8882;53.192;8.184;2024-03-29T11:53:22;2.60;;;1.53;;
17528;SDS011;8882;53.192;8.184;2024-03-29T11:55:47;1.63;;;1.53;;
17528;SDS011;8882;53.192;8.184;2024-03-29T11:58:27;2.57;;;1.40;;
17528;SDS011;8882;53.192;8.184;2024-03-29T12:00:54;3.40;;;1.50;;
17528;SDS011;8882;53.192;8.184;2024-03-29T12:03:22;2.70;;;1.33;;
17528;SDS011;8882;53.192;8.184;2024-03-29T12:05:50;2.63;;;1.27;;
17528;SDS011;8882;53.192;8.184;2024-03-29T12:08:16;4.73;;;1.60;;
17528;SDS011;8882;53.192;8.184;2024-03-29T12:10:42;1.10;;;1.00;;
17528;SDS011;8882;53.192;8.184;2024-03-29T12:13:08;2.27;;;1.40;;
17528;SDS011;8882;53.192;8.184;2024-03-29T12:15:34;1.97;;;1.57;;
17528;SDS011;8882;53.192;8.184;2024-03-29T12:18:00;2.53;;;1.40;;
17528;SDS011;8882;53.192;8.184;2024-03-29T12:20:33;1.80;;;1.50;;
17528;SDS011;8882;53.192;8.184;2024-03-29T12:23:00;2.33;;;1.13;;
17528;SDS011;8882;53.192;8.184;2024-03-29T12:25:27;2.63;;;1.43;;
17528;SDS011;8882;53.192;8.184;2024-03-29T12:27:56;1.73;;;1.30;;
17528;SDS011;8882;53.192;8.184;2024-03-29T12:30:23;3.33;;;1.63;;
17528;SDS011;8882;53.192;8.184;2024-03-29T12:32:59;1.80;;;1.30;;
17528;SDS011;8882;53.192;8.184;2024-03-29T12:35:26;2.03;;;1.47;;
17528;SDS011;8882;53.192;8.184;2024-03-29T12:37:52;1.17;;;1.17;;
17528;SDS011;8882;53.192;8.184;2024-03-29T12:40:18;1.53;;;1.20;;
17528;SDS011;8882;53.192;8.184;2024-03-29T12:42:50;2.77;;;1.50;;
17528;SDS011;8882;53.192;8.184;2024-03-29T12:45:19;1.30;;;1.20;;
17528;SDS011;8882;53.192;8.184;2024-03-29T12:47:45;1.53;;;1.40;;
17528;SDS011;8882;53.192;8.184;2024-03-29T12:50:28;2.77;;;1.40;;
17528;SDS011;8882;53.192;8.184;2024-03-29T12:52:58;3.33;;;1.43;;
17528;SDS011;8882;53.192;8.184;2024-03-29T12:55:31;2.07;;;1.30;;
17528;SDS011;8882;53.192;8.184;2024-03-29T12:58:00;3.03;;;1.40;;
17528;SDS011;8882;53.192;8.184;2024-03-29T13:00:28;3.27;;;1.40;;
17528;SDS011;8882;53.192;8.184;2024-03-29T13:02:54;2.07;;;1.37;;
17528;SDS011;8882;53.192;8.184;2024-03-29T13:05:19;2.53;;;1.20;;
17528;SDS011;8882;53.192;8.184;2024-03-29T13:07:45;1.97;;;1.10;;
17528;SDS011;8882;53.192;8.184;2024-03-29T13:10:10;1.33;;;1.23;;
17528;SDS011;8882;53.192;8.184;2024-03-29T13:12:43;2.13;;;1.20;;
17528;SDS011;8882;53.192;8.184;2024-03-29T13:15:15;1.37;;;1.27;;
17528;SDS011;8882;53.192;8.184;2024-03-29T13:17:43;1.40;;;1.30;;
17528;SDS011;8882;53.192;8.184;2024-03-29T13:20:09;2.73;;;1.40;;
17528;SDS011;8882;53.192;8.184;2024-03-29T13:22:36;4.10;;;1.50;;
17528;SDS011;8882;53.192;8.184;2024-03-29T13:25:02;1.80;;;1.70;;
17528;SDS011;8882;53.192;8.184;2024-03-29T13:27:28;1.93;;;1.83;;
17528;SDS011;8882;53.192;8.184;2024-03-29T13:29:53;1.80;;;1.67;;
17528;SDS011;8882;53.192;8.184;2024-03-29T13:32:19;1.70;;;1.60;;
17528;SDS011;8882;53.192;8.184;2024-03-29T13:34:44;2.67;;;1.60;;
17528;SDS011;8882;53.192;8.184;2024-03-29T13:37:10;3.83;;;2.10;;
17528;SDS011;8882;53.192;8.184;2024-03-29T13:39:35;2.87;;;2.30;;
17528;SDS011;8882;53.192;8.184;2024-03-29T13:42:01;1.83;;;1.70;;
17528;SDS011;8882;53.192;8.184;2024-03-29T13:44:26;1.70;;;1.60;;
17528;SDS011;8882;53.192;8.184;2024-03-29T13:46:52;2.47;;;1.90;;
17528;SDS011;8882;53.192;8.184;2024-03-29T13:49:18;2.93;;;1.97;;
17528;SDS011;8882;53.192;8.184;2024-03-29T13:51:46;2.10;;;2.00;;
17528;SDS011;8882;53.192;8.184;2024-03-29T13:54:12;3.17;;;2.20;;
17528;SDS011;8882;53.192;8.184;2024-03-29T13:56:37;3.00;;;2.47;;
17528;SDS011;8882;53.192;8.184;2024-03-29T13:59:03;6.47;;;2.83;;
17528;SDS011;8882;53.192;8.184;2024-03-29T14:01:29;2.67;;;2.33;;
17528;SDS011;8882;53.192;8.184;2024-03-29T14:03:54;4.10;;;2.70;;
17528;SDS011;8882;53.192;8.184;2024-03-29T14:06:20;3.30;;;2.90;;
17528;SDS011;8882;53.192;8.184;2024-03-29T14:08:46;2.60;;;2.50;;
17528;SDS011;8882;53.192;8.184;2024-03-29T14:11:11;2.93;;;2.57;;
17528;SDS011;8882;53.192;8.184;2024-03-29T14:13:39;4.50;;;3.00;;
17528;SDS011;8882;53.192;8.184;2024-03-29T14:16:04;2.77;;;2.53;;
17528;SDS011;8882;53.192;8.184;2024-03-29T14:18:30;3.20;;;2.90;;
17528;SDS011;8882;53.192;8.184;2024-03-29T14:20:56;2.83;;;2.60;;
17528;SDS011;8882;53.192;8.184;2024-03-29T14:23:22;2.53;;;2.33;;
17528;SDS011;8882;53.192;8.184;2024-03-29T14:25:50;2.07;;;1.90;;
17528;SDS011;8882;53.192;8.184;2024-03-29T14:28:16;2.30;;;2.10;;
17528;SDS011;8882;53.192;8.184;2024-03-29T14:30:41;1.77;;;1.67;;
17528;SDS011;8882;53.192;8.184;2024-03-29T14:33:07;1.93;;;1.83;;
17528;SDS011;8882;53.192;8.184;2024-03-29T14:35:33;2.30;;;2.10;;
17528;SDS011;8882;53.192;8.184;2024-03-29T14:38:00;1.90;;;1.70;;
17528;SDS011;8882;53.192;8.184;2024-03-29T14:40:25;2.57;;;2.20;;
17528;SDS011;8882;53.192;8.184;2024-03-29T14:42:54;2.40;;;1.97;;
17528;SDS011;8882;53.192;8.184;2024-03-29T14:45:20;1.50;;;1.40;;
17528;SDS011;8882;53.192;8.184;2024-03-29T14:47:46;3.00;;;1.50;;
17528;SDS011;8882;53.192;8.184;2024-03-29T14:50:11;3.57;;;1.60;;
17528;SDS011;8882;53.192;8.184;2024-03-29T14:52:37;1.50;;;1.40;;
17528;SDS011;8882;53.192;8.184;2024-03-29T14:55:03;4.20;;;1.57;;
17528;SDS011;8882;53.192;8.184;2024-03-29T14:57:29;1.80;;;1.20;;
17528;SDS011;8882;53.192;8.184;2024-03-29T14:59:55;1.40;;;1.30;;
17528;SDS011;8882;53.192;8.184;2024-03-29T15:02:21;1.43;;;1.27;;
17528;SDS011;8882;53.192;8.184;2024-03-29T15:04:46;2.10;;;1.27;;
17528;SDS011;8882;53.192;8.184;2024-03-29T15:07:12;1.90;;;1.10;;
17528;SDS011;8882;53.192;8.184;2024-03-29T15:09:37;1.53;;;1.17;;
17528;SDS011;8882;53.192;8.184;2024-03-29T15:12:03;2.00;;;1.13;;
17528;SDS011;8882;53.192;8.184;2024-03-29T15:14:29;2.07;;;1.27;;
17528;SDS011;8882;53.192;8.184;2024-03-29T15:16:55;2.57;;;1.33;;
17528;SDS011;8882;53.192;8.184;2024-03-29T15:19:21;1.53;;;1.20;;
17528;SDS011;8882;53.192;8.184;2024-03-29T15:21:48;1.43;;;0.90;;
17528;SDS011;8882;53.192;8.184;2024-03-29T15:24:14;1.50;;;1.20;;
17528;SDS011;8882;53.192;8.184;2024-03-29T15:26:39;1.87;;;1.03;;
17528;SDS011;8882;53.192;8.184;2024-03-29T15:29:05;1.77;;;1.20;;
17528;SDS011;8882;53.192;8.184;2024-03-29T15:31:35;2.00;;;1.00;;
17528;SDS011;8882;53.192;8.184;2024-03-29T15:34:05;3.13;;;1.73;;
17528;SDS011;8882;53.192;8.184;2024-03-29T15:36:32;1.07;;;0.90;;
17528;SDS011;8882;53.192;8.184;2024-03-29T15:38:59;2.03;;;1.10;;
17528;SDS011;8882;53.192;8.184;2024-03-29T15:41:32;2.13;;;1.20;;
17528;SDS011;8882;53.192;8.184;2024-03-29T15:44:02;2.30;;;1.00;;
17528;SDS011;8882;53.192;8.184;2024-03-29T15:46:29;1.63;;;1.10;;
17528;SDS011;8882;53.192;8.184;2024-03-29T15:48:55;1.00;;;1.00;;
17528;SDS011;8882;53.192;8.184;2024-03-29T15:51:21;1.00;;;1.00;;
17528;SDS011;8882;53.192;8.184;2024-03-29T15:53:48;1.07;;;1.00;;
17528;SDS011;8882;53.192;8.184;2024-03-29T15:56:14;1.63;;;1.00;;
17528;SDS011;8882;53.192;8.184;2024-03-29T15:58:40;1.53;;;0.97;;
17528;SDS011;8882;53.192;8.184;2024-03-29T16:01:05;1.07;;;1.07;;
17528;SDS011;8882;53.192;8.184;2024-03-29T16:03:32;1.20;;;1.10;;
17528;SDS011;8882;53.192;8.184;2024-03-29T16:05:58;1.13;;;0.90;;
17528;SDS011;8882;53.192;8.184;2024-03-29T16:08:23;1.37;;;1.17;;
17528;SDS011;8882;53.192;8.184;2024-03-29T16:11:05;0.80;;;0.80;;
17528;SDS011;8882;53.192;8.184;2024-03-29T16:13:32;1.70;;;1.07;;
17528;SDS011;8882;53.192;8.184;2024-03-29T16:15:59;1.77;;;1.30;;
17528;SDS011;8882;53.192;8.184;2024-03-29T16:18:26;1.30;;;1.00;;
17528;SDS011;8882;53.192;8.184;2024-03-29T16:20:52;2.33;;;1.70;;
17528;SDS011;8882;53.192;8.184;2024-03-29T16:23:18;2.90;;;0.93;;
17528;SDS011;8882;53.192;8.184;2024-03-29T16:25:44;1.30;;;1.20;;
17528;SDS011;8882;53.192;8.184;2024-03-29T16:28:10;1.00;;;1.00;;
17528;SDS011;8882;53.192;8.184;2024-03-29T16:30:39;0.90;;;0.90;;
17528;SDS011;8882;53.192;8.184;2024-03-29T16:33:05;1.70;;;1.30;;
17528;SDS011;8882;53.192;8.184;2024-03-29T16:35:30;2.40;;;1.17;;
17528;SDS011;8882;53.192;8.184;2024-03-29T16:37:57;2.00;;;1.30;;
17528;SDS011;8882;53.192;8.184;2024-03-29T16:40:22;0.90;;;0.90;;
17528;SDS011;8882;53.192;8.184;2024-03-29T16:42:48;3.60;;;1.70;;
17528;SDS011;8882;53.192;8.184;2024-03-29T16:45:13;2.33;;;1.40;;
17528;SDS011;8882;53.192;8.184;2024-03-29T16:47:39;2.10;;;1.70;;
17528;SDS011;8882;53.192;8.184;2024-03-29T16:50:05;1.90;;;1.10;;
17528;SDS011;8882;53.192;8.184;2024-03-29T16:52:32;2.57;;;1.33;;
17528;SDS011;8882;53.192;8.184;2024-03-29T16:54:57;1.83;;;1.00;;
17528;SDS011;8882;53.192;8.184;2024-03-29T16:57:23;1.30;;;1.20;;
17528;SDS011;8882;53.192;8.184;2024-03-29T16:59:48;1.70;;;1.60;;
17528;SDS011;8882;53.192;8.184;2024-03-29T17:02:14;1.13;;;1.10;;
17528;SDS011;8882;53.192;8.184;2024-03-29T17:04:43;2.77;;;1.10;;
17528;SDS011;8882;53.192;8.184;2024-03-29T17:07:12;1.17;;;1.07;;
17528;SDS011;8882;53.192;8.184;2024-03-29T17:09:42;1.13;;;1.03;;
17528;SDS011;8882;53.192;8.184;2024-03-29T17:12:09;1.30;;;1.00;;
17528;SDS011;8882;53.192;8.184;2024-03-29T17:14:36;1.10;;;1.00;;
17528;SDS011;8882;53.192;8.184;2024-03-29T17:17:02;2.37;;;0.87;;
17528;SDS011;8882;53.192;8.184;2024-03-29T17:19:32;5.37;;;3.03;;
17528;SDS011;8882;53.192;8.184;2024-03-29T17:22:01;2.97;;;2.30;;
17528;SDS011;8882;53.192;8.184;2024-03-29T17:24:27;1.40;;;1.23;;
17528;SDS011;8882;53.192;8.184;2024-03-29T17:26:53;2.07;;;1.20;;
17528;SDS011;8882;53.192;8.184;2024-03-29T17:29:21;2.00;;;1.80;;
17528;SDS011;8882;53.192;8.184;2024-03-29T17:31:47;3.90;;;3.60;;
17528;SDS011;8882;53.192;8.184;2024-03-29T17:34:14;3.00;;;2.40;;
17528;SDS011;8882;53.192;8.184;2024-03-29T17:36:41;3.60;;;2.90;;
17528;SDS011;8882;53.192;8.184;2024-03-29T17:39:07;4.73;;;3.73;;
17528;SDS011;8882;53.192;8.184;2024-03-29T17:41:36;14.47;;;12.97;;
17528;SDS011;8882;53.192;8.184;2024-03-29T17:44:01;19.33;;;15.03;;
17528;SDS011;8882;53.192;8.184;2024-03-29T17:46:27;25.20;;;17.90;;
17528;SDS011;8882;53.192;8.184;2024-03-29T17:48:53;8.77;;;7.73;;
17528;SDS011;8882;53.192;8.184;2024-03-29T17:51:18;5.93;;;5.30;;
17528;SDS011;8882;53.192;8.184;2024-03-29T17:53:44;3.57;;;3.10;;
17528;SDS011;8882;53.192;8.184;2024-03-29T17:56:10;4.20;;;3.73;;
17528;SDS011;8882;53.192;8.184;2024-03-29T17:58:35;5.13;;;3.37;;
17528;SDS011;8882;53.192;8.184;2024-03-29T18:01:01;5.77;;;4.50;;
17528;SDS011;8882;53.192;8.184;2024-03-29T18:03:27;3.43;;;3.00;;
17528;SDS011;8882;53.192;8.184;2024-03-29T18:05:53;2.17;;;1.73;;
17528;SDS011;8882;53.192;8.184;2024-03-29T18:08:19;2.30;;;2.07;;
17528;SDS011;8882;53.192;8.184;2024-03-29T18:10:46;2.10;;;1.90;;
17528;SDS011;8882;53.192;8.184;2024-03-29T18:13:11;2.47;;;1.87;;
17528;SDS011;8882;53.192;8.184;2024-03-29T18:15:40;3.30;;;2.00;;
17528;SDS011;8882;53.192;8.184;2024-03-29T18:18:08;2.90;;;2.10;;
17528;SDS011;8882;53.192;8.184;2024-03-29T18:20:34;3.27;;;2.73;;
17528;SDS011;8882;53.192;8.184;2024-03-29T18:23:00;5.30;;;2.70;;
17528;SDS011;8882;53.192;8.184;2024-03-29T18:25:26;3.77;;;3.07;;
17528;SDS011;8882;53.192;8.184;2024-03-29T18:27:51;5.97;;;3.33;;
17528;SDS011;8882;53.192;8.184;2024-03-29T18:30:18;4.33;;;3.30;;
17528;SDS011;8882;53.192;8.184;2024-03-29T18:32:43;5.07;;;3.30;;
17528;SDS011;8882;53.192;8.184;2024-03-29T18:35:09;4.73;;;2.83;;
17528;SDS011;8882;53.192;8.184;2024-03-29T18:37:34;5.60;;;3.97;;
17528;SDS011;8882;53.192;8.184;2024-03-29T18:40:00;7.57;;;4.93;;
17528;SDS011;8882;53.192;8.184;2024-03-29T18:42:25;5.87;;;4.63;;
17528;SDS011;8882;53.192;8.184;2024-03-29T18:44:54;6.77;;;5.27;;
17528;SDS011;8882;53.192;8.184;2024-03-29T18:47:19;6.63;;;4.97;;
17528;SDS011;8882;53.192;8.184;2024-03-29T18:49:45;7.30;;;5.10;;
17528;SDS011;8882;53.192;8.184;2024-03-29T18:52:11;10.30;;;5.80;;
17528;SDS011;8882;53.192;8.184;2024-03-29T18:54:36;10.07;;;6.53;;
17528;SDS011;8882;53.192;8.184;2024-03-29T18:57:02;8.40;;;5.87;;
17528;SDS011;8882;53.192;8.184;2024-03-29T18:59:29;11.17;;;7.13;;
17528;SDS011;8882;53.192;8.184;2024-03-29T19:01:54;9.80;;;7.03;;
17528;SDS011;8882;53.192;8.184;2024-03-29T19:04:20;11.07;;;7.63;;
17528;SDS011;8882;53.192;8.184;2024-03-29T19:06:49;11.53;;;8.20;;
17528;SDS011;8882;53.192;8.184;2024-03-29T19:09:15;11.50;;;7.93;;
17528;SDS011;8882;53.192;8.184;2024-03-29T19:11:41;11.10;;;9.57;;
17528;SDS011;8882;53.192;8.184;2024-03-29T19:14:07;10.20;;;7.17;;
17528;SDS011;8882;53.192;8.184;2024-03-29T19:16:32;16.00;;;9.80;;
17528;SDS011;8882;53.192;8.184;2024-03-29T19:18:58;14.67;;;9.47;;
17528;SDS011;8882;53.192;8.184;2024-03-29T19:21:24;11.87;;;9.27;;
17528;SDS011;8882;53.192;8.184;2024-03-29T19:23:49;13.30;;;9.67;;
17528;SDS011;8882;53.192;8.184;2024-03-29T19:26:15;13.73;;;8.73;;
17528;SDS011;8882;53.192;8.184;2024-03-29T19:28:41;11.23;;;8.43;;
17528;SDS011;8882;53.192;8.184;2024-03-29T19:31:06;10.97;;;8.50;;
17528;SDS011;8882;53.192;8.184;2024-03-29T19:33:33;12.93;;;8.60;;
17528;SDS011;8882;53.192;8.184;2024-03-29T19:35:59;11.33;;;8.17;;
17528;SDS011;8882;53.192;8.184;2024-03-29T19:38:25;9.00;;;6.27;;
17528;SDS011;8882;53.192;8.184;2024-03-29T19:40:50;9.03;;;6.63;;
17528;SDS011;8882;53.192;8.184;2024-03-29T19:43:16;8.03;;;5.83;;
17528;SDS011;8882;53.192;8.184;2024-03-29T19:45:41;6.87;;;5.37;;
17528;SDS011;8882;53.192;8.184;2024-03-29T19:48:10;11.23;;;6.13;;
17528;SDS011;8882;53.192;8.184;2024-03-29T19:50:36;7.30;;;5.77;;
17528;SDS011;8882;53.192;8.184;2024-03-29T19:53:04;8.43;;;5.37;;
17528;SDS011;8882;53.192;8.184;2024-03-29T19:55:29;6.63;;;5.30;;
17528;SDS011;8882;53.192;8.184;2024-03-29T19:57:55;6.90;;;4.90;;
17528;SDS011;8882;53.192;8.184;2024-03-29T20:00:21;7.47;;;4.80;;
17528;SDS011;8882;53.192;8.184;2024-03-29T20:02:46;6.07;;;4.27;;
17528;SDS011;8882;53.192;8.184;2024-03-29T20:05:13;6.23;;;4.80;;
17528;SDS011;8882;53.192;8.184;2024-03-29T20:07:38;5.60;;;4.37;;
17528;SDS011;8882;53.192;8.184;2024-03-29T20:10:04;7.17;;;5.03;;
17528;SDS011;8882;53.192;8.184;2024-03-29T20:12:30;8.67;;;5.47;;
17528;SDS011;8882;53.192;8.184;2024-03-29T20:14:56;7.27;;;5.40;;
17528;SDS011;8882;53.192;8.184;2024-03-29T20:17:21;7.67;;;5.00;;